Latest Weather Observations for Degrussa Aerodrome

IDW60801

Issued at 12:43 pm WST Monday 30 March 2020 (issued every 10 minutes, with the page automatically refreshed every 10 minutes)

About weather observations | Map of weather stations | Latest weather observations for WA | Other Formats
Station Details ID: 507500 Name: DEGRUSSA AERODROME Lat: -25.56 Lon: 119.29 Height: 550.91 m
Data from the previous 72 hours. | See also: Recent months for locations in Western Australia
Date/Time
WST
Temp
°C
App
Temp
°C
Dew
Point
°C
Rel
Hum
%
Delta-T
°C
Wind Press
QNH
hPa
Press
MSL
hPa
Rain since
9am
mm
Dir  Spd
km/h
Gust
km/h
Spd
kts
Gust
kts
30/12:30pm 32.7 31.1 10.1 25 13.3 W 9 15 5 8 1014.4 1010.4 0.0
30/12:00pm 32.1 31.0 10.8 27 12.6 ENE 7 13 4 7 1014.9 1011.0 0.0
30/11:30am 31.6 30.2 10.9 28 12.2 ENE 9 19 5 10 1015.4 1011.4 0.0
30/11:00am 30.9 28.8 11.3 30 11.6 NE 13 22 7 12 1015.7 1011.7 0.0
30/10:30am 30.0 27.4 12.0 33 10.8 NE 17 28 9 15 1016.1 1012.1 0.0
30/10:00am 29.1 26.5 12.1 35 10.1 NE 17 26 9 14 1016.5 1012.5 0.0
30/09:30am 27.4 24.7 11.8 38 9.2 ENE 17 24 9 13 1016.8 1012.9 0.0
30/09:00am 25.9 22.7 11.3 40 8.5 E 19 26 10 14 1016.9 1013.0 0.0
30/08:30am 24.9 21.4 10.8 41 8.1 E 20 28 11 15 1016.8 1012.9 0.0
30/08:00am 23.5 19.9 9.9 42 7.6 ESE 19 26 10 14 1016.5 1012.5 0.0
30/07:30am 22.7 19.6 8.8 41 7.6 ESE 15 22 8 12 1016.4 1012.4 0.0
30/07:00am 22.1 18.9 8.6 42 7.3 ESE 15 20 8 11 1016.1 1012.1 0.0
30/06:30am 21.8 18.6 8.3 42 7.3 SE 15 19 8 10 1015.6 1011.6 0.0
30/06:00am 22.0 18.8 8.5 42 7.3 SE 15 20 8 11 1015.5 1011.5 0.0
30/05:30am 22.4 18.8 8.5 41 7.6 ESE 17 24 9 13 1015.3 1011.3 0.0
30/05:00am 22.4 18.9 8.9 42 7.4 ESE 17 22 9 12 1015.0 1011.1 0.0
30/04:30am 22.6 19.2 9.0 42 7.5 SE 17 24 9 13 1014.7 1010.7 0.0
30/04:00am 22.8 19.4 9.2 42 7.5 SE 17 22 9 12 1014.5 1010.5 0.0
30/03:30am 23.2 19.8 9.2 41 7.7 SE 17 26 9 14 1014.5 1010.5 0.0
30/03:00am 23.0 20.4 9.4 42 7.5 SSE 13 19 7 10 1014.4 1010.4 0.0
30/02:30am 23.2 20.3 9.6 42 7.6 SSE 15 20 8 11 1014.4 1010.4 0.0
30/02:00am 23.5 21.8 9.9 42 7.6 S 9 13 5 7 1014.5 1010.5 0.0
30/01:30am 24.0 21.6 9.9 41 7.9 S 13 19 7 10 1014.7 1010.7 0.0
30/01:00am 24.3 22.7 10.2 41 8.0 S 9 15 5 8 1014.9 1011.0 0.0
30/12:30am 24.8 23.6 10.3 40 8.2 S 7 9 4 5 1014.8 1010.8 0.0
30/12:00am 25.2 24.0 10.3 39 8.5 SSE 7 9 4 5 1015.3 1011.3 0.0
 
Date/Time
WST
Temp
°C
App
Temp
°C
Dew
Point
°C
Rel
Hum
%
Delta-T
°C
Wind Press
QNH
hPa
Press
MSL
hPa
Rain since
9am
mm
Dir  Spd
km/h
Gust
km/h
Spd
kts
Gust
kts
29/11:30pm 26.0 24.4 10.2 37 9.0 SSE 9 13 5 7 1015.5 1011.5 0.0
29/11:00pm 26.7 24.8 10.4 36 9.4 S 11 15 6 8 1015.8 1011.8 0.0
29/10:30pm 27.0 24.8 10.7 36 9.4 S 13 19 7 10 1015.8 1011.8 0.0
29/10:00pm 27.5 26.2 11.1 36 9.6 S 9 13 5 7 1015.8 1011.8 0.0
29/09:30pm 28.0 26.5 10.7 34 10.0 S 9 13 5 7 1015.6 1011.6 0.0
29/09:00pm 28.7 27.3 10.8 33 10.4 S 9 11 5 6 1015.7 1011.7 0.0
29/08:30pm 29.0 27.8 10.2 31 10.9 SSW 7 11 4 6 1015.6 1011.6 0.0
29/08:00pm 29.6 28.4 10.2 30 11.2 SSW 7 7 4 4 1015.5 1011.5 0.0
29/07:30pm 30.4 29.1 9.8 28 11.9 SW 7 9 4 5 1015.2 1011.2 0.0
29/07:00pm 31.1 29.8 9.9 27 12.3 SSW 7 9 4 5 1014.7 1010.7 0.0
29/06:30pm 31.8 30.3 9.3 25 13.0 SSW 7 11 4 6 1014.4 1010.4 0.0
29/06:00pm 32.3 30.4 9.2 24 13.3 SSW 9 13 5 7 1014.3 1010.3 0.0
29/05:30pm 32.4 30.5 9.2 24 13.4 SSW 9 19 5 10 1014.1 1010.1 0.0
29/05:00pm 33.0 30.3 9.1 23 13.8 SSW 13 20 7 11 1014.2 1010.2 0.0
29/04:30pm 33.4 29.7 8.1 21 14.4 SSW 17 26 9 14 1014.0 1010.0 0.0
29/04:00pm 33.4 31.0 8.8 22 14.2 SW 11 19 6 10 1014.0 1010.0 0.0
29/03:30pm 33.7 30.8 8.3 21 14.6 SSE 13 20 7 11 1014.0 1010.0 0.0
29/03:00pm 33.8 32.1 8.4 21 14.6 S 7 19 4 10 1014.1 1010.1 0.0
29/02:30pm 33.2 30.8 8.6 22 14.1 S 11 22 6 12 1014.2 1010.2 0.0
29/02:00pm 32.4 30.0 8.6 23 13.6 SSW 11 17 6 9 1014.4 1010.4 0.0
29/01:30pm 32.6 30.6 8.8 23 13.7 SE 9 17 5 9 1014.7 1010.7 0.0
29/01:00pm 32.5 30.1 8.7 23 13.6 WSW 11 20 6 11 1015.0 1011.1 0.0
29/12:30pm 32.2 30.7 8.4 23 13.6 SSW 6 15 3 8 1015.2 1011.2 0.0
29/12:00pm 31.4 30.2 10.2 27 12.4 ESE 7 20 4 11 1015.7 1011.7 0.0
29/11:30am 30.7 28.2 11.1 30 11.6 S 15 26 8 14 1016.1 1012.1 0.0
29/11:00am 30.8 29.4 12.2 32 11.2 SSE 11 24 6 13 1016.3 1012.3 0.0
29/10:30am 29.4 27.5 11.9 34 10.4 SE 13 20 7 11 1016.5 1012.5 0.0
29/10:00am 28.8 27.9 12.7 37 9.7 SE 9 17 5 9 1016.8 1012.9 0.0
29/09:30am 28.2 26.9 12.5 37 9.4 ESE 11 19 6 10 1016.8 1012.9 0.0
29/09:00am 26.9 25.6 12.5 40 8.6 ESE 11 19 6 10 1016.7 1012.8 0.0
29/08:30am 25.4 23.7 12.3 44 7.7 ESE 13 22 7 12 1016.7 1012.8 0.0
29/08:00am 25.0 22.5 12.2 44 7.5 ESE 17 24 9 13 1016.3 1012.3 0.0
29/07:30am 23.8 20.8 12.1 48 6.8 ESE 19 24 10 13 1015.9 1011.9 0.0
29/07:00am 22.9 20.6 11.9 50 6.4 ESE 15 22 8 12 1015.9 1011.9 0.0
29/06:30am 22.4 20.0 11.5 50 6.2 SSE 15 19 8 10 1015.7 1011.7 0.0
29/06:00am 22.5 20.1 11.3 49 6.4 SE 15 19 8 10 1015.2 1011.2 0.0
29/05:30am 21.9 20.4 10.4 48 6.4 SE 9 13 5 7 1015.0 1011.1 0.0
29/05:00am 21.7 19.9 9.3 45 6.8 SSE 9 11 5 6 1015.0 1011.1 0.0
29/04:30am 22.1 20.2 8.9 43 7.2 S 9 13 5 7 1014.9 1011.0 0.0
29/04:00am 22.4 20.0 8.5 41 7.6 S 11 13 6 7 1014.8 1010.8 0.0
29/03:30am 22.3 20.2 8.4 41 7.5 SSE 9 11 5 6 1014.6 1010.6 0.0
29/03:00am 23.0 20.9 8.3 39 8.0 S 9 11 5 6 1014.6 1010.6 0.0
29/02:30am 23.2 21.1 8.1 38 8.2 S 9 11 5 6 1014.7 1010.7 0.0
29/02:00am 23.5 21.4 8.4 38 8.2 S 9 9 5 5 1015.2 1011.2 0.0
29/01:30am 24.1 21.7 8.5 37 8.6 SSW 11 13 6 7 1015.0 1011.1 0.0
29/01:00am 24.6 22.9 8.5 36 8.9 SSW 7 9 4 5 1015.2 1011.2 0.0
29/12:30am 24.9 22.9 8.8 36 8.9 SSW 9 11 5 6 1015.2 1011.2 0.0
29/12:00am 25.5 23.3 9.3 36 9.1 SSW 11 15 6 8 1015.2 1011.2 0.0
 
Date/Time
WST
Temp
°C
App
Temp
°C
Dew
Point
°C
Rel
Hum
%
Delta-T
°C
Wind Press
QNH
hPa
Press
MSL
hPa
Rain since
9am
mm
Dir  Spd
km/h
Gust
km/h
Spd
kts
Gust
kts
28/11:30pm 26.4 23.8 9.3 34 9.6 SSW 13 17 7 9 1015.3 1011.3 0.0
28/11:00pm 26.4 24.3 9.7 35 9.5 SSW 11 13 6 7 1015.3 1011.3 0.0
28/10:30pm 26.8 25.2 10.1 35 9.5 SSW 9 11 5 6 1015.6 1011.6 0.0
28/10:00pm 27.5 25.8 9.8 33 10.1 SW 9 11 5 6 1015.7 1011.7 0.0
28/09:30pm 28.1 26.7 9.4 31 10.6 SSW 7 9 4 5 1015.6 1011.6 0.0
28/09:00pm 29.0 27.5 9.2 29 11.3 SSW 7 11 4 6 1015.4 1011.4 0.0
28/08:30pm 29.9 28.1 9.4 28 11.7 SW 9 13 5 7 1015.2 1011.2 0.0
28/08:00pm 30.5 28.5 8.8 26 12.3 SSW 9 11 5 6 1015.0 1011.1 0.0
28/07:30pm 31.5 29.1 8.5 24 13.1 SW 11 13 6 7 1014.9 1011.0 0.0
28/07:00pm 32.3 29.0 7.9 22 13.8 SW 15 19 8 10 1014.5 1010.5 0.0
28/06:30pm 33.2 29.1 7.9 21 14.4 SW 19 26 10 14 1014.2 1010.2 0.0
28/06:00pm 34.0 29.1 7.1 19 15.2 SW 22 30 12 16 1013.7 1009.7 0.0
28/05:30pm 34.9 28.7 6.2 17 16.0 SW 28 37 15 20 1013.4 1009.4 0.0
28/05:00pm 35.9 29.5 7.0 17 16.4 SW 30 39 16 21 1013.0 1009.0 0.0
28/04:30pm 36.0 30.6 6.2 16 16.7 SW 24 35 13 19 1012.8 1008.8 0.0
28/04:00pm 35.8 31.3 6.1 16 16.6 SW 19 35 10 19 1012.7 1008.7 0.0
28/03:30pm 36.9 32.4 6.0 15 17.4 SW 19 30 10 16 1013.0 1009.0 0.0
28/03:00pm 36.6 32.0 6.7 16 17.0 SW 20 30 11 16 1013.1 1009.1 0.0
28/02:59pm 36.4 32.0 6.6 16 16.8 SW 19 28 10 15 1013.1 1009.1 0.0
28/02:48pm 36.4 31.8 6.6 16 16.8 SW 20 33 11 18 1013.3 1009.2 0.0
28/02:30pm 37.2 32.4 7.2 16 17.2 SW 22 33 12 18 1013.3 1009.2 0.0
28/02:00pm 37.4 32.2 7.3 16 17.3 WSW 24 37 13 20 1013.5 1009.5 0.0
28/01:30pm 37.3 33.1 8.2 17 16.9 WSW 20 32 11 17 1013.7 1009.7 0.0
28/01:00pm 37.3 33.1 8.2 17 16.9 SW 20 33 11 18 1014.3 1010.3 0.0
28/12:30pm 37.4 32.8 8.2 17 17.0 SW 22 35 12 19 1014.6 1010.6 0.0
28/12:00pm 36.9 34.9 8.7 18 16.5 WSW 9 24 5 13 1014.9 1011.0 0.0
28/11:30am 36.3 33.8 8.2 18 16.3 NW 11 20 6 11 1015.6 1011.6 0.0
28/11:00am 35.6 33.4 9.2 20 15.5 SW 11 19 6 10 1016.1 1012.1 0.0
28/10:30am 35.2 32.9 8.9 20 15.3 SW 11 17 6 9 1016.3 1012.3 0.0
28/10:00am 34.5 32.0 9.7 22 14.6 SSW 13 19 7 10 1016.6 1012.7 0.0
28/09:30am 34.0 31.6 9.9 23 14.2 SSW 13 19 7 10 1016.7 1012.8 0.0
28/09:00am 33.0 31.1 10.4 25 13.3 S 11 15 6 8 1016.7 1012.8 0.0
28/08:30am 31.1 29.2 10.4 28 12.1 S 11 13 6 7 1016.8 1012.9 0.0
28/08:00am 29.6 27.8 10.7 31 11.0 S 11 17 6 9 1016.9 1013.0 0.0
28/07:30am 27.1 24.8 10.3 35 9.6 S 13 17 7 9 1016.8 1012.9 0.0
28/07:00am 25.5 23.0 9.7 37 8.9 SSW 13 15 7 8 1016.6 1012.7 0.0
28/06:30am 24.9 23.6 10.0 39 8.4 SSW 7 9 4 5 1016.3 1012.3 0.0
28/06:00am 25.0 23.7 10.1 39 8.4 SSW 7 9 4 5 1016.1 1012.1 0.0
28/05:30am 24.2 23.1 10.5 42 7.8 SSW 7 9 4 5 1015.9 1011.9 0.0
28/05:00am 23.6 23.1 10.6 44 7.4 S 4 6 2 3 1015.6 1011.6 0.0
28/04:30am 24.3 23.8 10.6 42 7.8 S 4 4 2 2 1015.6 1011.6 0.0
28/04:00am 24.6 24.2 9.7 39 8.4 NE 2 4 1 2 1015.5 1011.5 0.0
28/03:30am 25.4 24.6 9.7 37 8.9 ESE 4 6 2 3 1015.5 1011.5 0.0
28/03:00am 25.9 24.3 8.8 34 9.5 S 7 19 4 10 1015.6 1011.6 0.0
28/02:30am 25.3 24.8 9.2 36 9.0 WNW 2 6 1 3 1015.5 1011.5 0.0
28/02:00am 28.0 26.3 8.3 29 11.0 WSW 7 15 4 8 1015.5 1011.5 0.0
28/01:30am 26.1 23.8 10.3 37 9.0 SW 13 20 7 11 1015.2 1011.2 0.0
28/01:00am 25.8 25.1 10.0 37 9.0 SW 4 7 2 4 1014.9 1011.0 0.0
28/12:30am 26.0 25.0 10.2 37 9.0 SSE 6 7 3 4 1014.8 1010.8 0.0
28/12:00am 26.5 25.8 10.2 36 9.3 ESE 4 4 2 2 1014.8 1010.8 0.0
 
Date/Time
WST
Temp
°C
App
Temp
°C
Dew
Point
°C
Rel
Hum
%
Delta-T
°C
Wind Press
QNH
hPa
Press
MSL
hPa
Rain since
9am
mm
Dir  Spd
km/h
Gust
km/h
Spd
kts
Gust
kts
27/11:30pm 27.1 26.5 10.3 35 9.6 SSW 4 6 2 3 1015.0 1011.1 0.0
27/11:00pm 27.8 28.0 10.5 34 10.0 CALM 0 2 0 1 1015.3 1011.3 0.0
27/10:30pm 29.0 27.6 8.7 28 11.5 E 6 6 3 3 1015.5 1011.5 0.0
27/10:00pm 29.7 27.7 8.7 27 11.9 ENE 9 11 5 6 1015.5 1011.5 0.0
27/09:30pm 29.6 28.0 8.6 27 11.9 ENE 7 9 4 5 1015.6 1011.6 0.0
27/09:00pm 30.6 28.4 7.7 24 12.8 E 9 9 5 5 1015.6 1011.6 0.0
27/08:30pm 31.2 29.5 8.2 24 13.0 ENE 7 9 4 5 1015.6 1011.6 0.0
27/08:00pm 32.5 30.3 8.0 22 13.9 ENE 9 11 5 6 1015.4 1011.4 0.0
27/07:30pm 32.8 31.3 8.3 22 14.0 ENE 6 6 3 3 1015.2 1011.2 0.0
27/07:00pm 33.6 32.1 8.3 21 14.5 E 6 9 3 5 1014.9 1011.0 0.0
27/06:30pm 34.9 34.2 7.1 18 15.7 CALM 0 4 0 2 1014.7 1010.7 0.0
27/06:00pm 35.9 34.1 7.0 17 16.4 SW 6 11 3 6 1014.5 1010.5 0.0
27/05:30pm 36.8 34.8 6.9 16 17.0 WSW 7 17 4 9 1014.4 1010.4 0.0
27/05:00pm 37.1 34.3 7.1 16 17.1 WNW 11 17 6 9 1014.5 1010.5 0.0
27/04:30pm 37.3 35.5 7.3 16 17.2 ESE 6 13 3 7 1014.5 1010.5 0.0
27/04:00pm 37.0 34.6 7.0 16 17.1 SW 9 15 5 8 1014.5 1010.5 0.0
27/03:30pm 37.1 34.7 7.1 16 17.1 WSW 9 15 5 8 1014.7 1010.7 0.0
27/03:00pm 37.3 35.0 7.3 16 17.2 N 9 15 5 8 1014.8 1010.8 0.0
27/02:30pm 37.3 34.7 6.3 15 17.5 WSW 9 15 5 8 1015.2 1011.2 0.0
27/02:00pm 37.1 34.9 6.2 15 17.4 W 7 15 4 8 1015.4 1011.4 0.0
27/01:30pm 37.0 34.8 6.1 15 17.4 NE 7 17 4 9 1015.8 1011.8 0.0
27/01:00pm 36.5 33.4 5.7 15 17.2 ENE 11 20 6 11 1016.1 1012.1 0.0

Other formats

Comma delimited format used in spreadsheet applications
http://www.bom.gov.au/fwo/IDW60801/IDW60801.99400.axf

JavaScript Object Notation format (JSON) in row-major order
http://www.bom.gov.au/fwo/IDW60801/IDW60801.99400.json

Data quality

Most of these data are generated automatically and are frequently updated. Quality checks on data are not normally performed. It is possible for incorrect values to appear. Refer to information at About Latest Weather Observations and please check the disclaimer before using these data.